AAL1364 KLAX-KSFO
Flight info
| Callsign | AAL1364 |
|---|---|
| Flight time | 0h 55m |
| Altitude | 30000 |
| Route | SUMMR2 STOKD SERFR SERFR4 |
| Aircraft | B38M/M-SDE1FGHILORVWXY/HB1 |
Departure
| Time | 2026-04-26 00:55 |
|---|---|
| Airport | Los Angeles International Airport (KLAX) |
Arrival
| Time | 2026-04-26 01:50 |
|---|---|
| Airport | San Francisco International Airport (KSFO) |
| Time | Latitude | Longitude | Altitude | Speed | Heading |
|---|---|---|---|---|---|
| 2026-04-26 00:32 | 33.94679 | -118.40640 | 128 ft | 0 kts | 257° |
| 2026-04-26 00:44 | 33.94681 | -118.40633 | 128 ft | 4 kts | 259° |
| 2026-04-26 00:44 | 33.94682 | -118.40601 | 127 ft | 4 kts | 281° |
| 2026-04-26 00:45 | 33.94665 | -118.40570 | 123 ft | 4 kts | 342° |
| 2026-04-26 00:45 | 33.94659 | -118.40568 | 128 ft | 0 kts | 353° |
| 2026-04-26 00:49 | 33.94666 | -118.40569 | 123 ft | 3 kts | 353° |
| 2026-04-26 00:50 | 33.94723 | -118.40578 | 125 ft | 12 kts | 353° |
| 2026-04-26 00:50 | 33.94818 | -118.40598 | 125 ft | 15 kts | 349° |
| 2026-04-26 00:50 | 33.94871 | -118.40538 | 128 ft | 12 kts | 81° |
| 2026-04-26 00:50 | 33.94884 | -118.40427 | 128 ft | 15 kts | 82° |
| 2026-04-26 00:51 | 33.94895 | -118.40316 | 128 ft | 14 kts | 84° |
| 2026-04-26 00:51 | 33.94919 | -118.40194 | 125 ft | 11 kts | 51° |
| 2026-04-26 00:51 | 33.94924 | -118.40187 | 127 ft | 0 kts | 39° |
| 2026-04-26 00:52 | 33.94925 | -118.40187 | 127 ft | 0 kts | 39° |
| 2026-04-26 00:52 | 33.94936 | -118.40180 | 124 ft | 4 kts | 24° |
| 2026-04-26 00:53 | 33.94987 | -118.40183 | 126 ft | 12 kts | 336° |
| 2026-04-26 00:53 | 33.95011 | -118.40245 | 125 ft | 0 kts | 263° |
| 2026-04-26 00:53 | 33.95010 | -118.40253 | 128 ft | 1 kts | 263° |
| 2026-04-26 00:53 | 33.95008 | -118.40273 | 127 ft | 4 kts | 263° |
| 2026-04-26 00:54 | 33.95004 | -118.40318 | 126 ft | 7 kts | 263° |
| 2026-04-26 00:54 | 33.94980 | -118.40570 | 128 ft | 66 kts | 264° |
| 2026-04-26 00:54 | 33.94897 | -118.41391 | 126 ft | 128 kts | 264° |
| 2026-04-26 00:54 | 33.94737 | -118.42626 | 246 ft | 169 kts | 262° |
| 2026-04-26 00:55 | 33.94583 | -118.44162 | 680 ft | 187 kts | 262° |
| 2026-04-26 00:55 | 33.94445 | -118.45596 | 1764 ft | 164 kts | 264° |
| 2026-04-26 00:55 | 33.94353 | -118.47020 | 2390 ft | 179 kts | 268° |
| 2026-04-26 00:55 | 33.94300 | -118.48628 | 2897 ft | 204 kts | 267° |
| 2026-04-26 00:56 | 33.94232 | -118.50449 | 3424 ft | 230 kts | 265° |
| 2026-04-26 00:56 | 33.94084 | -118.52419 | 4183 ft | 240 kts | 264° |
| 2026-04-26 00:56 | 33.93928 | -118.54435 | 5153 ft | 244 kts | 264° |
| 2026-04-26 00:56 | 33.93773 | -118.56454 | 6101 ft | 246 kts | 264° |
| 2026-04-26 00:57 | 33.93616 | -118.58520 | 7028 ft | 249 kts | 264° |
| 2026-04-26 00:57 | 33.93457 | -118.60600 | 7960 ft | 250 kts | 263° |
| 2026-04-26 00:57 | 33.93297 | -118.62702 | 8882 ft | 253 kts | 263° |
| 2026-04-26 00:57 | 33.93134 | -118.64824 | 9785 ft | 256 kts | 263° |
| 2026-04-26 00:58 | 33.92967 | -118.66979 | 10517 ft | 265 kts | 263° |
| 2026-04-26 00:58 | 33.92789 | -118.69273 | 10948 ft | 284 kts | 263° |
| 2026-04-26 00:58 | 33.92600 | -118.71698 | 11571 ft | 296 kts | 263° |
| 2026-04-26 00:58 | 33.92406 | -118.74190 | 11926 ft | 300 kts | 263° |
| 2026-04-26 00:59 | 33.92212 | -118.76687 | 11985 ft | 299 kts | 263° |
| 2026-04-26 00:59 | 33.92019 | -118.79149 | 11982 ft | 298 kts | 263° |
| 2026-04-26 00:59 | 33.91823 | -118.81644 | 11982 ft | 298 kts | 263° |
| 2026-04-26 00:59 | 33.91732 | -118.84156 | 12163 ft | 302 kts | 271° |
| 2026-04-26 01:00 | 33.91832 | -118.86673 | 13163 ft | 300 kts | 270° |
| 2026-04-26 01:00 | 33.91912 | -118.89193 | 14063 ft | 303 kts | 269° |
| 2026-04-26 01:00 | 33.91984 | -118.91750 | 14894 ft | 306 kts | 269° |
| 2026-04-26 01:00 | 33.92048 | -118.94309 | 15668 ft | 312 kts | 268° |
| 2026-04-26 01:01 | 33.92111 | -118.96941 | 16471 ft | 317 kts | 268° |
| 2026-04-26 01:01 | 33.92180 | -118.99610 | 17300 ft | 321 kts | 269° |
| 2026-04-26 01:01 | 33.92719 | -119.02266 | 18114 ft | 335 kts | 289° |
| 2026-04-26 01:01 | 33.93903 | -119.04738 | 18811 ft | 343 kts | 294° |
| 2026-04-26 01:02 | 33.95145 | -119.07215 | 19485 ft | 347 kts | 294° |
| 2026-04-26 01:02 | 33.96397 | -119.09682 | 20179 ft | 349 kts | 294° |
| 2026-04-26 01:02 | 33.97680 | -119.12189 | 20871 ft | 352 kts | 294° |
| 2026-04-26 01:02 | 33.98974 | -119.14708 | 21566 ft | 355 kts | 294° |
| 2026-04-26 01:03 | 34.00294 | -119.17243 | 22238 ft | 360 kts | 297° |
| 2026-04-26 01:03 | 34.02088 | -119.19471 | 22939 ft | 378 kts | 315° |
| 2026-04-26 01:03 | 34.04232 | -119.21343 | 23565 ft | 384 kts | 315° |
| 2026-04-26 01:03 | 34.06418 | -119.23263 | 23972 ft | 390 kts | 316° |
| 2026-04-26 01:04 | 34.08625 | -119.25178 | 24535 ft | 392 kts | 316° |
| 2026-04-26 01:04 | 34.10828 | -119.27081 | 25064 ft | 394 kts | 316° |
| 2026-04-26 01:04 | 34.13066 | -119.29009 | 25575 ft | 396 kts | 316° |
| 2026-04-26 01:04 | 34.15318 | -119.30950 | 26063 ft | 399 kts | 316° |
| 2026-04-26 01:05 | 34.17586 | -119.32904 | 26573 ft | 402 kts | 316° |
| 2026-04-26 01:05 | 34.19869 | -119.34873 | 27083 ft | 405 kts | 316° |
| 2026-04-26 01:05 | 34.22170 | -119.36857 | 27590 ft | 408 kts | 316° |
| 2026-04-26 01:05 | 34.24489 | -119.38860 | 28124 ft | 410 kts | 316° |
| 2026-04-26 01:06 | 34.26808 | -119.40864 | 28754 ft | 408 kts | 316° |
| 2026-04-26 01:06 | 34.29126 | -119.42868 | 29363 ft | 407 kts | 316° |
| 2026-04-26 01:06 | 34.31404 | -119.44839 | 29867 ft | 408 kts | 316° |
| 2026-04-26 01:06 | 34.33717 | -119.46841 | 29975 ft | 407 kts | 316° |
| 2026-04-26 01:07 | 34.38298 | -119.50811 | 29943 ft | 404 kts | 316° |
| 2026-04-26 01:07 | 34.42617 | -119.55073 | 29971 ft | 393 kts | 304° |
| 2026-04-26 01:08 | 34.46463 | -119.59826 | 29942 ft | 395 kts | 306° |
| 2026-04-26 01:08 | 34.50298 | -119.64541 | 29892 ft | 394 kts | 306° |
| 2026-04-26 01:09 | 34.54154 | -119.69290 | 29939 ft | 394 kts | 306° |
| 2026-04-26 01:09 | 34.57998 | -119.74032 | 29934 ft | 394 kts | 306° |
| 2026-04-26 01:10 | 34.61826 | -119.78759 | 29905 ft | 394 kts | 306° |
| 2026-04-26 01:10 | 34.65672 | -119.83517 | 29990 ft | 394 kts | 306° |
| 2026-04-26 01:11 | 34.69497 | -119.88255 | 29948 ft | 392 kts | 306° |
| 2026-04-26 01:11 | 34.73321 | -119.92998 | 29950 ft | 391 kts | 307° |
| 2026-04-26 01:12 | 34.77150 | -119.97754 | 29953 ft | 395 kts | 307° |
| 2026-04-26 01:12 | 34.80965 | -120.02501 | 29983 ft | 395 kts | 307° |
| 2026-04-26 01:13 | 34.84810 | -120.07288 | 29949 ft | 394 kts | 307° |
| 2026-04-26 01:13 | 34.88646 | -120.12075 | 29987 ft | 394 kts | 307° |
| 2026-04-26 01:14 | 34.92456 | -120.16832 | 29937 ft | 392 kts | 308° |
| 2026-04-26 01:14 | 34.96241 | -120.21569 | 29983 ft | 393 kts | 308° |
| 2026-04-26 01:15 | 35.00050 | -120.26341 | 29979 ft | 392 kts | 308° |
| 2026-04-26 01:15 | 35.03867 | -120.31128 | 29971 ft | 392 kts | 308° |
| 2026-04-26 01:16 | 35.07677 | -120.35912 | 29978 ft | 393 kts | 308° |
| 2026-04-26 01:16 | 35.11691 | -120.40459 | 30002 ft | 396 kts | 312° |
| 2026-04-26 01:17 | 35.15752 | -120.44999 | 29969 ft | 394 kts | 311° |
| 2026-04-26 01:17 | 35.19769 | -120.49513 | 29975 ft | 394 kts | 311° |
| 2026-04-26 01:18 | 35.23793 | -120.54043 | 29980 ft | 393 kts | 312° |
| 2026-04-26 01:18 | 35.27839 | -120.58604 | 29974 ft | 395 kts | 312° |
| 2026-04-26 01:19 | 35.31880 | -120.63167 | 29957 ft | 395 kts | 312° |
| 2026-04-26 01:19 | 35.35928 | -120.67743 | 29961 ft | 395 kts | 312° |
| 2026-04-26 01:20 | 35.39957 | -120.72304 | 29973 ft | 395 kts | 312° |
| 2026-04-26 01:20 | 35.44011 | -120.76902 | 29967 ft | 397 kts | 313° |
| 2026-04-26 01:21 | 35.48051 | -120.81473 | 29972 ft | 398 kts | 315° |
| 2026-04-26 01:21 | 35.52524 | -120.85544 | 29973 ft | 400 kts | 319° |
| 2026-04-26 01:22 | 35.56975 | -120.89656 | 29974 ft | 400 kts | 319° |
| 2026-04-26 01:22 | 35.61419 | -120.93793 | 29944 ft | 402 kts | 319° |
| 2026-04-26 01:23 | 35.65847 | -120.97927 | 29967 ft | 400 kts | 320° |
| 2026-04-26 01:23 | 35.70272 | -121.02064 | 29978 ft | 399 kts | 320° |
| 2026-04-26 01:24 | 35.74695 | -121.06205 | 29976 ft | 399 kts | 320° |
| 2026-04-26 01:24 | 35.79119 | -121.10353 | 29959 ft | 400 kts | 320° |
| 2026-04-26 01:25 | 35.83549 | -121.14512 | 29959 ft | 400 kts | 320° |
| 2026-04-26 01:25 | 35.87977 | -121.18676 | 29973 ft | 400 kts | 320° |
| 2026-04-26 01:26 | 35.92420 | -121.22859 | 29949 ft | 401 kts | 321° |
| 2026-04-26 01:26 | 35.96871 | -121.27057 | 29962 ft | 401 kts | 321° |
| 2026-04-26 01:27 | 36.01276 | -121.31216 | 29959 ft | 400 kts | 321° |
| 2026-04-26 01:27 | 36.05709 | -121.35406 | 29957 ft | 400 kts | 321° |
| 2026-04-26 01:28 | 36.10413 | -121.39147 | 29963 ft | 403 kts | 328° |
| 2026-04-26 01:28 | 36.15176 | -121.42839 | 29968 ft | 404 kts | 327° |
| 2026-04-26 01:29 | 36.19130 | -121.45937 | 29962 ft | 404 kts | 327° |
| 2026-04-26 01:29 | 36.24658 | -121.50281 | 29970 ft | 404 kts | 327° |
| 2026-04-26 01:30 | 36.28626 | -121.53404 | 29277 ft | 413 kts | 328° |
| 2026-04-26 01:30 | 36.31076 | -121.55334 | 28681 ft | 417 kts | 328° |
| 2026-04-26 01:30 | 36.34350 | -121.57916 | 28150 ft | 423 kts | 328° |
| 2026-04-26 01:31 | 36.36828 | -121.59872 | 27494 ft | 422 kts | 328° |
| 2026-04-26 01:31 | 36.38505 | -121.61197 | 26989 ft | 423 kts | 328° |
| 2026-04-26 01:31 | 36.40965 | -121.63141 | 26268 ft | 424 kts | 328° |
| 2026-04-26 01:31 | 36.43460 | -121.65113 | 25561 ft | 425 kts | 328° |
| 2026-04-26 01:32 | 36.45965 | -121.67097 | 24854 ft | 426 kts | 328° |
| 2026-04-26 01:32 | 36.48469 | -121.69081 | 24122 ft | 428 kts | 327° |
| 2026-04-26 01:32 | 36.50987 | -121.71069 | 23476 ft | 427 kts | 327° |
| 2026-04-26 01:32 | 36.53486 | -121.73042 | 22883 ft | 423 kts | 327° |
| 2026-04-26 01:33 | 36.55955 | -121.74993 | 22362 ft | 417 kts | 327° |
| 2026-04-26 01:33 | 36.58355 | -121.76892 | 21860 ft | 411 kts | 326° |
| 2026-04-26 01:33 | 36.60755 | -121.78790 | 21377 ft | 405 kts | 326° |
| 2026-04-26 01:33 | 36.63114 | -121.80660 | 20913 ft | 399 kts | 326° |
| 2026-04-26 01:34 | 36.65441 | -121.82504 | 20456 ft | 394 kts | 326° |
| 2026-04-26 01:34 | 36.67739 | -121.84328 | 20005 ft | 389 kts | 326° |
| 2026-04-26 01:34 | 36.70007 | -121.86127 | 19570 ft | 385 kts | 326° |
| 2026-04-26 01:34 | 36.72252 | -121.87913 | 19154 ft | 381 kts | 326° |
| 2026-04-26 01:35 | 36.74588 | -121.89446 | 18597 ft | 383 kts | 340° |
| 2026-04-26 01:35 | 36.77174 | -121.90213 | 18182 ft | 379 kts | 346° |
| 2026-04-26 01:35 | 36.79745 | -121.90960 | 17667 ft | 376 kts | 346° |
| 2026-04-26 01:35 | 36.82253 | -121.91673 | 17170 ft | 374 kts | 347° |
| 2026-04-26 01:36 | 36.84776 | -121.92382 | 16716 ft | 370 kts | 347° |
| 2026-04-26 01:36 | 36.87280 | -121.93083 | 16242 ft | 367 kts | 347° |
| 2026-04-26 01:36 | 36.89771 | -121.93780 | 15761 ft | 365 kts | 347° |
| 2026-04-26 01:37 | 36.94688 | -121.95160 | 14790 ft | 360 kts | 346° |
| 2026-04-26 01:37 | 36.97088 | -121.96087 | 14254 ft | 360 kts | 342° |
| 2026-04-26 01:37 | 36.99407 | -121.97012 | 13763 ft | 345 kts | 343° |
| 2026-04-26 01:37 | 37.01652 | -121.97894 | 13295 ft | 331 kts | 343° |
| 2026-04-26 01:38 | 37.03802 | -121.98732 | 12841 ft | 318 kts | 343° |
| 2026-04-26 01:38 | 37.05878 | -121.99538 | 12424 ft | 306 kts | 342° |
| 2026-04-26 01:38 | 37.07872 | -122.00312 | 12009 ft | 295 kts | 342° |
| 2026-04-26 01:38 | 37.09800 | -122.01060 | 11626 ft | 285 kts | 342° |
| 2026-04-26 01:39 | 37.11672 | -122.01785 | 11278 ft | 280 kts | 341° |
| 2026-04-26 01:39 | 37.13536 | -122.02509 | 10877 ft | 281 kts | 341° |
| 2026-04-26 01:39 | 37.15409 | -122.03235 | 10506 ft | 282 kts | 341° |
| 2026-04-26 01:39 | 37.17295 | -122.03967 | 10131 ft | 283 kts | 340° |
| 2026-04-26 01:40 | 37.19168 | -122.04695 | 9733 ft | 278 kts | 341° |
| 2026-04-26 01:40 | 37.20972 | -122.05395 | 9331 ft | 272 kts | 340° |
| 2026-04-26 01:40 | 37.22773 | -122.06097 | 8950 ft | 271 kts | 340° |
| 2026-04-26 01:40 | 37.24571 | -122.06796 | 8599 ft | 270 kts | 340° |
| 2026-04-26 01:41 | 37.26371 | -122.07497 | 8238 ft | 269 kts | 340° |
| 2026-04-26 01:41 | 37.28155 | -122.08195 | 7877 ft | 267 kts | 340° |
| 2026-04-26 01:41 | 37.29923 | -122.08891 | 7482 ft | 265 kts | 340° |
| 2026-04-26 01:41 | 37.31669 | -122.09580 | 7134 ft | 260 kts | 340° |
| 2026-04-26 01:42 | 37.33371 | -122.10249 | 6807 ft | 252 kts | 340° |
| 2026-04-26 01:42 | 37.34994 | -122.10888 | 6521 ft | 243 kts | 340° |
| 2026-04-26 01:42 | 37.36584 | -122.11515 | 6165 ft | 237 kts | 340° |
| 2026-04-26 01:42 | 37.38146 | -122.12086 | 5869 ft | 229 kts | 341° |
| 2026-04-26 01:43 | 37.39657 | -122.12603 | 5570 ft | 221 kts | 342° |
| 2026-04-26 01:43 | 37.41119 | -122.13106 | 5302 ft | 213 kts | 341° |
| 2026-04-26 01:43 | 37.42511 | -122.13585 | 5098 ft | 200 kts | 340° |
| 2026-04-26 01:43 | 37.43813 | -122.14036 | 4874 ft | 189 kts | 341° |
| 2026-04-26 01:44 | 37.45046 | -122.14460 | 4634 ft | 179 kts | 340° |
| 2026-04-26 01:44 | 37.46225 | -122.14849 | 4398 ft | 174 kts | 340° |
| 2026-04-26 01:44 | 37.47387 | -122.15234 | 4216 ft | 175 kts | 340° |
| 2026-04-26 01:44 | 37.48564 | -122.15623 | 4053 ft | 175 kts | 340° |
| 2026-04-26 01:45 | 37.49745 | -122.16015 | 3881 ft | 175 kts | 340° |
| 2026-04-26 01:45 | 37.50919 | -122.16403 | 3710 ft | 174 kts | 340° |
| 2026-04-26 01:45 | 37.52091 | -122.16792 | 3515 ft | 174 kts | 341° |
| 2026-04-26 01:45 | 37.53198 | -122.17333 | 3265 ft | 167 kts | 315° |
| 2026-04-26 01:46 | 37.53881 | -122.18461 | 3034 ft | 161 kts | 297° |
| 2026-04-26 01:46 | 37.54491 | -122.19649 | 2863 ft | 162 kts | 300° |
| 2026-04-26 01:46 | 37.55086 | -122.20843 | 2661 ft | 160 kts | 296° |
| 2026-04-26 01:46 | 37.55625 | -122.22061 | 2469 ft | 158 kts | 294° |
| 2026-04-26 01:47 | 37.56140 | -122.23285 | 2273 ft | 158 kts | 294° |
| 2026-04-26 01:47 | 37.56652 | -122.24507 | 2061 ft | 157 kts | 294° |
| 2026-04-26 01:47 | 37.57154 | -122.25703 | 1879 ft | 155 kts | 294° |
| 2026-04-26 01:47 | 37.57652 | -122.26891 | 1710 ft | 149 kts | 293° |
| 2026-04-26 01:48 | 37.58129 | -122.28027 | 1478 ft | 144 kts | 293° |
| 2026-04-26 01:48 | 37.58588 | -122.29126 | 1259 ft | 136 kts | 295° |
| 2026-04-26 01:48 | 37.59023 | -122.30162 | 1065 ft | 131 kts | 295° |
| 2026-04-26 01:48 | 37.59447 | -122.31174 | 873 ft | 130 kts | 295° |
| 2026-04-26 01:49 | 37.59871 | -122.32183 | 702 ft | 131 kts | 294° |
| 2026-04-26 01:49 | 37.60293 | -122.33191 | 512 ft | 130 kts | 295° |
| 2026-04-26 01:49 | 37.60718 | -122.34251 | 385 ft | 138 kts | 294° |
| 2026-04-26 01:49 | 37.61180 | -122.35316 | 164 ft | 136 kts | 296° |
| 2026-04-26 01:50 | 37.61590 | -122.36313 | 32 ft | 121 kts | 293° |
| 2026-04-26 01:50 | 37.61937 | -122.37157 | 18 ft | 89 kts | 298° |
| 2026-04-26 01:50 | 37.62199 | -122.37773 | 25 ft | 64 kts | 299° |
| 2026-04-26 01:50 | 37.62343 | -122.38118 | 26 ft | 19 kts | 274° |
| 2026-04-26 01:51 | 37.62295 | -122.38236 | 27 ft | 15 kts | 225° |
| 2026-04-26 01:51 | 37.62197 | -122.38292 | 24 ft | 17 kts | 197° |
| 2026-04-26 01:51 | 37.62118 | -122.38321 | 24 ft | 10 kts | 195° |
| 2026-04-26 01:51 | 37.62043 | -122.38338 | 27 ft | 12 kts | 168° |
| 2026-04-26 01:52 | 37.61989 | -122.38255 | 29 ft | 14 kts | 120° |
| 2026-04-26 01:52 | 37.61937 | -122.38208 | 27 ft | 5 kts | 193° |
| 2026-04-26 01:52 | 37.61898 | -122.38236 | 25 ft | 9 kts | 211° |
| 2026-04-26 01:52 | 37.61861 | -122.38237 | 22 ft | 2 kts | 127° |
| 2026-04-26 01:53 | 37.61841 | -122.38210 | 22 ft | 6 kts | 138° |
| 2026-04-26 01:53 | 37.61838 | -122.38206 | 21 ft | 0 kts | 140° |